createdAt,value
2022-09-21T00:01:46.562Z,101130.96
2022-09-21T00:04:15.317Z,101132.36
2022-09-21T00:06:43.812Z,101128.54
2022-09-21T00:09:12.425Z,101131.15
2022-09-21T00:11:41.026Z,101130.63
2022-09-21T00:14:14.459Z,101132.55
2022-09-21T00:16:44.210Z,101134.48
2022-09-21T00:19:12.874Z,101134.48
2022-09-21T00:21:41.372Z,101138.65
2022-09-21T00:24:09.983Z,101136.92
2022-09-21T00:26:38.739Z,101137.80
2022-09-21T00:29:07.552Z,101140.08
2022-09-21T00:31:36.218Z,101139.71
2022-09-21T00:34:08.061Z,101138.33
2022-09-21T00:36:36.926Z,101140.59
2022-09-21T00:39:05.887Z,101135.86
2022-09-21T00:41:35.375Z,101135.70
2022-09-21T00:44:16.446Z,101140.06
2022-09-21T00:46:46.223Z,101141.11
2022-09-21T00:49:16.196Z,101139.36
2022-09-21T00:51:46.204Z,101136.77
2022-09-21T00:54:26.439Z,101140.07
2022-09-21T00:56:58.197Z,101137.46
2022-09-21T00:59:30.105Z,101134.67
2022-09-21T01:01:59.901Z,101133.63
2022-09-21T01:04:29.972Z,101132.41
2022-09-21T01:07:01.507Z,101128.92
2022-09-21T01:09:30.664Z,101129.44
2022-09-21T01:12:23.390Z,101131.89
2022-09-21T01:15:13.511Z,101129.98
2022-09-21T01:18:13.262Z,101129.45
2022-09-21T01:20:56.328Z,101128.05
2022-09-21T01:23:40.377Z,101128.41
2022-09-21T01:26:27.644Z,101126.84
2022-09-21T01:29:11.286Z,101125.45
2022-09-21T01:32:15.985Z,101130.16
2022-09-21T01:34:52.292Z,101130.48
2022-09-21T01:37:29.785Z,101130.31
2022-09-21T01:40:05.145Z,101135.37
2022-09-21T01:42:35.607Z,101140.77
2022-09-21T01:45:07.491Z,101142.48
2022-09-21T01:47:38.015Z,101146.12
2022-09-21T01:50:09.388Z,101146.64
2022-09-21T01:52:57.835Z,101150.64
2022-09-21T01:55:31.273Z,101151.51
2022-09-21T01:58:12.156Z,101155.51
2022-09-21T02:00:42.582Z,101154.11
2022-09-21T02:03:27.936Z,101155.52
2022-09-21T02:05:58.702Z,101153.77
2022-09-21T02:08:30.015Z,101155.49
2022-09-21T02:11:01.081Z,101158.98
2022-09-21T02:13:34.358Z,101158.98
2022-09-21T02:16:30.878Z,101161.05
2022-09-21T02:19:13.455Z,101168.00
2022-09-21T02:22:04.024Z,101173.22
2022-09-21T02:24:52.331Z,101177.91
2022-09-21T02:27:48.922Z,101175.45
2022-09-21T02:30:19.538Z,101173.70
2022-09-21T02:33:05.406Z,101176.85
2022-09-21T02:35:52.352Z,101178.23
2022-09-21T02:38:32.968Z,101182.39
2022-09-21T02:41:24.731Z,101185.17
2022-09-21T02:44:17.586Z,101186.73
2022-09-21T02:47:02.147Z,101188.81
2022-09-21T02:49:43.748Z,101190.55
2022-09-21T02:52:17.316Z,101192.11
2022-09-21T02:54:50.922Z,101193.67
2022-09-21T02:57:22.178Z,101189.84
2022-09-21T02:59:52.846Z,101188.77
2022-09-21T03:02:21.495Z,101190.85
2022-09-21T03:04:50.319Z,101188.59
2022-09-21T03:07:19.008Z,101189.96
2022-09-21T03:09:47.536Z,101188.38
2022-09-21T03:12:16.088Z,101188.56
2022-09-21T03:14:45.038Z,101187.86
2022-09-21T03:17:13.478Z,101186.11
2022-09-21T03:19:42.090Z,101186.98
2022-09-21T03:22:10.669Z,101188.20
2022-09-21T03:24:47.978Z,101188.54
2022-09-21T03:27:20.061Z,101189.73
2022-09-21T03:29:50.115Z,101192.69
2022-09-21T03:32:18.985Z,101193.88
2022-09-21T03:34:47.504Z,101194.21
2022-09-21T03:37:16.317Z,101196.99
2022-09-21T03:39:46.431Z,101196.28
2022-09-21T03:42:15.114Z,101195.05
2022-09-21T03:44:44.008Z,101195.05
2022-09-21T03:47:12.733Z,101200.44
2022-09-21T03:49:41.440Z,101199.21
2022-09-21T03:52:10.025Z,101201.82
2022-09-21T03:54:38.620Z,101207.38
2022-09-21T03:57:07.147Z,101208.60
2022-09-21T03:59:35.844Z,101212.06
2022-09-21T04:02:04.492Z,101217.80
2022-09-21T04:04:33.094Z,101222.33
2022-09-21T04:07:01.688Z,101224.94
2022-09-21T04:09:30.785Z,101225.26
2022-09-21T04:11:59.254Z,101226.67
2022-09-21T04:14:28.049Z,101230.14
2022-09-21T04:16:56.941Z,101227.38
2022-09-21T04:19:26.146Z,101230.52
2022-09-21T04:21:56.453Z,101227.94
2022-09-21T04:24:24.990Z,101229.88
2022-09-21T04:26:53.526Z,101228.52
2022-09-21T04:29:22.331Z,101224.73
2022-09-21T04:31:50.876Z,101226.84
2022-09-21T04:34:19.468Z,101229.13
2022-09-21T04:36:48.489Z,101228.80
2022-09-21T04:39:17.018Z,101231.27
2022-09-21T04:41:45.852Z,101231.30
2022-09-21T04:44:14.469Z,101232.02
2022-09-21T04:46:42.935Z,101235.54
2022-09-21T04:49:11.450Z,101235.59
2022-09-21T04:51:39.985Z,101232.13
2022-09-21T04:54:08.598Z,101230.23
2022-09-21T04:56:37.596Z,101230.80
2022-09-21T04:59:06.139Z,101230.67
2022-09-21T05:01:35.049Z,101227.55
2022-09-21T05:04:03.883Z,101228.45
2022-09-21T05:06:34.081Z,101228.45
2022-09-21T05:09:21.010Z,101229.68
2022-09-21T05:11:50.182Z,101230.21
2022-09-21T05:14:18.789Z,101222.53
2022-09-21T05:16:50.073Z,101223.58
2022-09-21T05:19:18.693Z,101217.64
2022-09-21T05:21:47.381Z,101218.52
2022-09-21T05:24:16.088Z,101214.65
2022-09-21T05:26:44.587Z,101217.95
2022-09-21T05:29:13.445Z,101220.18
2022-09-21T05:32:01.670Z,101220.00
2022-09-21T05:34:42.526Z,101218.39
2022-09-21T05:37:38.295Z,101215.90
2022-09-21T05:40:07.798Z,101217.05
2022-09-21T05:42:36.883Z,101218.38
2022-09-21T05:45:06.536Z,101219.71
2022-09-21T05:48:03.438Z,101218.25
2022-09-21T05:51:00.152Z,101209.09
2022-09-21T05:53:31.551Z,101210.95
2022-09-21T05:56:14.272Z,101210.71
2022-09-21T05:59:04.627Z,101211.14
2022-09-21T06:01:51.905Z,101210.54
2022-09-21T06:04:20.787Z,101209.08
2022-09-21T06:06:50.040Z,101208.13
2022-09-21T06:09:18.792Z,101208.96
2022-09-21T06:11:48.012Z,101209.95
2022-09-21T06:14:16.587Z,101209.73
2022-09-21T06:16:45.100Z,101210.58
2022-09-21T06:19:14.192Z,101212.47
2022-09-21T06:21:42.771Z,101210.30
2022-09-21T06:24:12.142Z,101209.02
2022-09-21T06:26:40.666Z,101211.15
2022-09-21T06:29:09.187Z,101213.98
2022-09-21T06:31:37.786Z,101212.59
2022-09-21T06:34:06.293Z,101211.55
2022-09-21T06:36:34.848Z,101214.52
2022-09-21T06:39:03.610Z,101214.01
2022-09-21T06:41:32.796Z,101211.22
2022-09-21T06:44:01.505Z,101211.05
2022-09-21T06:46:30.199Z,101208.77
2022-09-21T06:48:58.850Z,101209.47
2022-09-21T06:51:27.425Z,101210.50
2022-09-21T06:53:57.249Z,101210.30
2022-09-21T06:56:26.905Z,101205.91
2022-09-21T06:58:56.102Z,101208.86
2022-09-21T07:01:25.108Z,101205.67
2022-09-21T07:03:54.574Z,101206.66
2022-09-21T07:06:23.117Z,101204.48
2022-09-21T07:11:43.549Z,101204.48
2022-09-21T07:14:12.270Z,101205.63
2022-09-21T07:16:41.368Z,101206.77
2022-09-21T07:19:11.296Z,101206.14
2022-09-21T07:21:40.507Z,101207.61
2022-09-21T07:24:12.524Z,101206.28
2022-09-21T07:26:41.582Z,101209.32
2022-09-21T07:29:10.187Z,101208.70
2022-09-21T07:31:38.849Z,101207.40
2022-09-21T07:34:07.559Z,101209.61
2022-09-21T07:36:36.230Z,101207.06
2022-09-21T07:39:05.523Z,101205.92
2022-09-21T07:41:34.300Z,101206.21
2022-09-21T07:44:04.091Z,101207.17
2022-09-21T07:46:33.172Z,101202.84
2022-09-21T07:49:01.856Z,101200.25
2022-09-21T07:51:30.450Z,101203.09
2022-09-21T07:53:58.958Z,101196.46
2022-09-21T07:56:27.564Z,101197.41
2022-09-21T07:59:08.588Z,101192.52
2022-09-21T08:01:42.164Z,101188.38
2022-09-21T08:04:11.727Z,101187.88
2022-09-21T08:06:40.589Z,101183.88
2022-09-21T08:09:09.371Z,101184.82
2022-09-21T08:11:39.738Z,101182.27
2022-09-21T08:14:08.342Z,101184.11
2022-09-21T08:16:39.057Z,101185.80
2022-09-21T08:19:07.741Z,101186.84
2022-09-21T08:21:36.461Z,101186.11
2022-09-21T08:24:05.338Z,101180.64
2022-09-21T08:26:33.945Z,101177.80
2022-09-21T08:29:03.256Z,101180.58
2022-09-21T08:31:32.001Z,101179.06
2022-09-21T08:34:01.428Z,101180.30
2022-09-21T08:36:29.993Z,101178.83
2022-09-21T08:38:58.650Z,101175.31
2022-09-21T08:41:46.562Z,101172.48
2022-09-21T08:44:15.361Z,101168.77
2022-09-21T08:46:47.012Z,101167.09
2022-09-21T08:49:27.194Z,101163.69
2022-09-21T08:52:06.299Z,101164.36
2022-09-21T08:54:50.149Z,101166.36
2022-09-21T08:57:20.399Z,101163.55
2022-09-21T08:59:50.496Z,101161.61
2022-09-21T09:02:52.884Z,101158.01
2022-09-21T09:05:39.930Z,101155.67
2022-09-21T09:08:33.813Z,101151.33
2022-09-21T09:11:49.309Z,101148.33
2022-09-21T09:14:34.388Z,101146.09
2022-09-21T09:17:30.664Z,101142.35
2022-09-21T09:20:05.852Z,101145.55
2022-09-21T09:22:44.386Z,101144.27
2022-09-21T09:25:22.180Z,101142.23
2022-09-21T09:28:06.219Z,101136.13
2022-09-21T09:30:36.161Z,101136.55
2022-09-21T09:33:25.914Z,101134.19
2022-09-21T09:36:06.832Z,101128.34
2022-09-21T09:38:57.599Z,101127.94
2022-09-21T09:42:03.261Z,101130.31
2022-09-21T09:44:34.932Z,101131.46
2022-09-21T09:47:03.775Z,101130.35
2022-09-21T09:49:44.591Z,101128.38
2022-09-21T09:52:15.638Z,101128.85
2022-09-21T09:54:44.884Z,101130.50
2022-09-21T09:57:13.972Z,101123.88
2022-09-21T09:59:54.050Z,101125.09
2022-09-21T10:02:26.767Z,101124.84
2022-09-21T10:05:06.363Z,101123.23
2022-09-21T10:07:41.342Z,101115.75
2022-09-21T10:10:22.304Z,101112.96
2022-09-21T10:12:53.029Z,101111.52
2022-09-21T10:15:25.439Z,101112.19
2022-09-21T10:18:20.329Z,101113.20
2022-09-21T10:20:58.136Z,101107.56
2022-09-21T10:23:28.038Z,101101.91
2022-09-21T10:26:01.846Z,101106.75
2022-09-21T10:28:31.790Z,101107.95
2022-09-21T10:31:11.764Z,101108.24
2022-09-21T10:34:06.225Z,101102.37
2022-09-21T10:36:39.527Z,101092.67
2022-09-21T10:39:29.638Z,101095.52
2022-09-21T10:42:06.448Z,101100.80
2022-09-21T10:44:47.098Z,101099.44
2022-09-21T10:47:24.524Z,101098.51
2022-09-21T10:49:55.687Z,101097.30
2022-09-21T10:52:36.468Z,101092.57
2022-09-21T10:55:07.347Z,101090.81
2022-09-21T10:57:36.267Z,101094.23
2022-09-21T11:00:29.707Z,101095.09
2022-09-21T11:03:01.679Z,101095.16
2022-09-21T11:05:35.483Z,101096.88
2022-09-21T11:08:11.849Z,101097.02
2022-09-21T11:10:50.546Z,101095.30
2022-09-21T11:13:45.452Z,101090.38
2022-09-21T11:16:13.938Z,101084.80
2022-09-21T11:18:57.881Z,101081.64
2022-09-21T11:21:50.808Z,101084.82
2022-09-21T11:24:43.092Z,101079.91
2022-09-21T11:27:24.768Z,101068.02
2022-09-21T11:30:18.903Z,101071.49
2022-09-21T11:32:50.446Z,101067.19
2022-09-21T11:35:42.408Z,101073.54
2022-09-21T11:38:34.604Z,101072.17
2022-09-21T11:41:14.161Z,101070.17
2022-09-21T11:44:16.499Z,101068.27
2022-09-21T11:46:55.763Z,101065.94
2022-09-21T11:49:36.536Z,101066.91
2022-09-21T11:52:40.548Z,101064.84
2022-09-21T11:55:17.063Z,101069.23
2022-09-21T11:58:05.453Z,101072.55
2022-09-21T12:01:00.690Z,101072.06
2022-09-21T12:03:41.618Z,101076.89
2022-09-21T12:06:36.706Z,101073.92
2022-09-21T12:09:18.346Z,101083.45
2022-09-21T12:12:10.774Z,101081.43
2022-09-21T12:15:09.127Z,101080.89
2022-09-21T12:18:17.742Z,101080.70
2022-09-21T12:20:53.207Z,101079.04
2022-09-21T12:23:43.664Z,101074.80
2022-09-21T12:26:18.892Z,101070.73
2022-09-21T12:28:52.545Z,101068.31
2022-09-21T12:31:26.647Z,101066.15
2022-09-21T12:34:19.157Z,101067.54
2022-09-21T12:37:00.318Z,101070.13
2022-09-21T12:39:36.864Z,101070.44
2022-09-21T12:42:27.987Z,101067.31
2022-09-21T12:45:03.792Z,101063.80
2022-09-21T12:47:47.464Z,101062.80
2022-09-21T12:50:22.663Z,101062.70
2022-09-21T12:52:52.878Z,101064.04
2022-09-21T12:55:22.234Z,101063.45
2022-09-21T12:58:16.390Z,101063.40
2022-09-21T13:01:00.999Z,101066.67
2022-09-21T13:04:02.463Z,101062.29
2022-09-21T13:06:49.803Z,101057.81
2022-09-21T13:09:21.182Z,101057.16
2022-09-21T13:12:34.981Z,101056.53
2022-09-21T13:15:14.352Z,101058.23
2022-09-21T13:17:43.442Z,101061.23
2022-09-21T13:20:22.163Z,101061.92
2022-09-21T13:23:01.238Z,101055.44
2022-09-21T13:25:32.789Z,101058.20
2022-09-21T13:28:04.583Z,101058.87
2022-09-21T13:30:40.734Z,101062.37
2022-09-21T13:33:18.493Z,101060.57
2022-09-21T13:36:13.723Z,101062.46
2022-09-21T13:38:44.987Z,101063.54
2022-09-21T13:41:19.576Z,101062.93
2022-09-21T13:43:59.751Z,101065.63
2022-09-21T13:46:37.420Z,101067.59
2022-09-21T13:49:22.951Z,101064.61
2022-09-21T13:52:03.017Z,101061.48
2022-09-21T13:54:34.608Z,101063.04
2022-09-21T13:57:16.043Z,101064.23
2022-09-21T13:59:47.464Z,101064.11
2022-09-21T14:02:28.140Z,101065.45
2022-09-21T14:04:58.049Z,101064.52
2022-09-21T14:07:31.670Z,101062.67
2022-09-21T14:10:04.481Z,101058.58
2022-09-21T14:12:40.084Z,101056.58
2022-09-21T14:15:18.383Z,101056.37
2022-09-21T14:18:18.258Z,101054.05
2022-09-21T14:21:08.656Z,101054.89
2022-09-21T14:23:38.901Z,101060.14
2022-09-21T14:26:36.493Z,101054.15
2022-09-21T14:29:32.536Z,101052.65
2022-09-21T14:32:04.827Z,101053.16
2022-09-21T14:34:37.465Z,101053.42
2022-09-21T14:37:27.973Z,101052.31
2022-09-21T14:39:58.653Z,101051.39
2022-09-21T14:42:29.589Z,101051.86
2022-09-21T14:45:02.456Z,101051.02
2022-09-21T14:47:55.893Z,101050.90
2022-09-21T14:50:29.535Z,101051.79
2022-09-21T14:53:08.421Z,101053.58
2022-09-21T14:55:49.032Z,101056.05
2022-09-21T14:58:28.924Z,101052.34
2022-09-21T15:01:21.803Z,101052.20
2022-09-21T15:04:19.422Z,101053.66
2022-09-21T15:07:21.455Z,101054.77
2022-09-21T15:10:34.894Z,101055.66
2022-09-21T15:13:36.936Z,101052.19
2022-09-21T15:16:24.076Z,101053.78
2022-09-21T15:19:21.283Z,101057.70
2022-09-21T15:22:12.433Z,101059.74
2022-09-21T15:24:59.772Z,101060.00
2022-09-21T15:27:34.009Z,101064.45
2022-09-21T15:30:06.316Z,101067.69
2022-09-21T15:32:42.159Z,101071.45
2022-09-21T15:35:20.704Z,101074.15
2022-09-21T15:37:51.329Z,101072.84
2022-09-21T15:40:28.587Z,101075.07
2022-09-21T15:43:02.160Z,101078.31
2022-09-21T15:45:45.556Z,101081.77
2022-09-21T15:48:14.652Z,101083.10
2022-09-21T15:50:46.388Z,101080.89
2022-09-21T15:53:30.505Z,101082.90
2022-09-21T15:56:03.040Z,101081.70
2022-09-21T15:58:37.660Z,101086.16
2022-09-21T16:01:18.003Z,101087.46
2022-09-21T16:03:46.967Z,101092.90
2022-09-21T16:06:26.379Z,101093.34
2022-09-21T16:08:55.696Z,101098.48
2022-09-21T16:11:27.951Z,101099.23
2022-09-21T16:14:30.637Z,101101.40
2022-09-21T16:17:18.366Z,101102.38
2022-09-21T16:19:51.241Z,101101.96
2022-09-21T16:22:44.604Z,101102.94
2022-09-21T16:25:30.776Z,101105.64
2022-09-21T16:28:29.718Z,101110.27
2022-09-21T16:30:59.399Z,101112.45
2022-09-21T16:33:44.988Z,101116.75
2022-09-21T16:36:22.600Z,101120.52
2022-09-21T16:38:55.510Z,101123.95
2022-09-21T16:41:32.653Z,101124.54
2022-09-21T16:44:02.045Z,101122.60
2022-09-21T16:46:32.309Z,101127.06
2022-09-21T16:49:01.003Z,101126.27
2022-09-21T16:51:29.781Z,101125.61
2022-09-21T16:53:58.857Z,101127.74
2022-09-21T16:56:27.467Z,101133.94
2022-09-21T16:58:57.448Z,101135.73
2022-09-21T17:01:27.054Z,101140.02
2022-09-21T17:03:57.137Z,101138.96
2022-09-21T17:06:25.776Z,101141.27
2022-09-21T17:08:54.366Z,101145.30
2022-09-21T17:11:24.601Z,101146.60
2022-09-21T17:13:53.664Z,101147.54
2022-09-21T17:16:22.887Z,101151.59
2022-09-21T17:18:51.640Z,101156.17
2022-09-21T17:21:20.535Z,101162.70
2022-09-21T17:23:49.529Z,101167.27
2022-09-21T17:26:19.560Z,101168.39
2022-09-21T17:28:48.389Z,101174.23
2022-09-21T17:31:17.211Z,101176.88
2022-09-21T17:33:48.066Z,101174.05
2022-09-21T17:36:18.394Z,101179.34
2022-09-21T17:38:47.052Z,101177.77
2022-09-21T17:41:25.708Z,101179.33
2022-09-21T17:44:04.360Z,101181.31
2022-09-21T17:46:51.656Z,101187.11
2022-09-21T17:49:20.670Z,101188.17
2022-09-21T17:52:08.105Z,101189.40
2022-09-21T17:54:40.123Z,101195.55
2022-09-21T17:57:22.502Z,101196.27
2022-09-21T18:00:04.646Z,101196.08
2022-09-21T18:02:34.299Z,101195.56
2022-09-21T18:05:15.269Z,101196.95
2022-09-21T18:07:44.150Z,101198.36
2022-09-21T18:10:16.770Z,101200.64
2022-09-21T18:13:03.873Z,101204.67
2022-09-21T18:16:20.099Z,101205.91
2022-09-21T18:19:13.196Z,101214.34
2022-09-21T18:21:44.314Z,101220.83
2022-09-21T18:24:22.026Z,101224.17
2022-09-21T18:26:52.794Z,101226.15
2022-09-21T18:29:46.572Z,101225.86
2022-09-21T18:32:49.625Z,101225.80
2022-09-21T18:35:47.566Z,101230.30
2022-09-21T18:38:24.767Z,101225.63
2022-09-21T18:41:13.120Z,101230.39
2022-09-21T18:44:00.779Z,101232.17
2022-09-21T18:46:41.918Z,101232.39
2022-09-21T18:49:13.519Z,101234.88
2022-09-21T18:52:07.751Z,101236.46
2022-09-21T18:54:36.402Z,101236.99
2022-09-21T18:57:12.498Z,101235.42
2022-09-21T18:59:42.467Z,101237.20
2022-09-21T19:02:15.090Z,101235.45
2022-09-21T19:04:45.270Z,101234.95
2022-09-21T19:07:18.681Z,101235.14
2022-09-21T19:09:53.399Z,101232.34
2022-09-21T19:12:49.204Z,101230.27
2022-09-21T19:15:48.677Z,101228.52
2022-09-21T19:18:57.625Z,101228.88
2022-09-21T19:21:27.646Z,101229.95
2022-09-21T19:24:08.698Z,101224.88
2022-09-21T19:26:56.256Z,101224.02
2022-09-21T19:30:02.386Z,101218.09
2022-09-21T19:32:44.850Z,101218.13
2022-09-21T19:35:31.285Z,101217.84
2022-09-21T19:38:02.069Z,101220.70
2022-09-21T19:40:39.026Z,101220.02
2022-09-21T19:43:33.989Z,101221.30
2022-09-21T19:46:33.879Z,101220.27
2022-09-21T19:49:18.306Z,101225.77
2022-09-21T19:51:52.565Z,101224.56
2022-09-21T19:54:42.423Z,101222.14
2022-09-21T19:57:35.393Z,101219.35
2022-09-21T20:00:10.237Z,101219.91
2022-09-21T20:03:03.797Z,101222.22
2022-09-21T20:05:41.087Z,101220.33
2022-09-21T20:08:21.954Z,101220.02
2022-09-21T20:11:06.340Z,101219.02
2022-09-21T20:13:50.150Z,101219.95
2022-09-21T20:16:33.750Z,101222.81
2022-09-21T20:19:18.416Z,101223.91
2022-09-21T20:21:51.741Z,101225.89
2022-09-21T20:24:52.993Z,101225.23
2022-09-21T20:27:42.641Z,101224.04
2022-09-21T20:30:14.398Z,101224.26
2022-09-21T20:32:46.873Z,101225.19
2022-09-21T20:35:30.921Z,101225.55
2022-09-21T20:38:02.746Z,101224.73
2022-09-21T20:40:32.597Z,101222.67
2022-09-21T20:43:02.071Z,101220.27
2022-09-21T20:45:33.568Z,101222.76
2022-09-21T20:48:15.318Z,101222.80
2022-09-21T20:50:46.726Z,101226.18
2022-09-21T20:53:16.064Z,101224.64
2022-09-21T20:55:54.092Z,101224.67
2022-09-21T20:58:24.234Z,101221.74
2022-09-21T21:00:58.570Z,101222.13
2022-09-21T21:03:27.771Z,101219.02
2022-09-21T21:06:10.420Z,101216.06
2022-09-21T21:08:39.379Z,101213.82
2022-09-21T21:11:08.475Z,101212.29
2022-09-21T21:13:37.981Z,101213.90
2022-09-21T21:16:11.778Z,101217.08
2022-09-21T21:18:41.724Z,101216.95
2022-09-21T21:21:11.420Z,101218.58
2022-09-21T21:24:06.200Z,101223.16
2022-09-21T21:26:57.799Z,101224.61
2022-09-21T21:29:24.782Z,101222.73
2022-09-21T21:31:53.627Z,101222.59
2022-09-21T21:34:23.694Z,101222.61
2022-09-21T21:36:53.713Z,101219.68
2022-09-21T21:39:22.296Z,101220.42
2022-09-21T21:41:50.981Z,101222.90
2022-09-21T21:44:19.565Z,101222.58
2022-09-21T21:46:48.454Z,101221.56
2022-09-21T21:49:17.759Z,101216.69
2022-09-21T21:51:49.487Z,101215.84
2022-09-21T21:54:19.224Z,101217.77
2022-09-21T21:56:48.116Z,101213.95
2022-09-21T21:59:17.890Z,101212.40
2022-09-21T22:01:47.538Z,101212.06
2022-09-21T22:04:16.770Z,101213.48
2022-09-21T22:06:45.286Z,101215.77
2022-09-21T22:09:15.001Z,101217.71
2022-09-21T22:11:43.760Z,101217.73
2022-09-21T22:14:13.030Z,101220.20
2022-09-21T22:16:41.684Z,101217.79
2022-09-21T22:19:10.306Z,101217.98
2022-09-21T22:21:48.184Z,101214.15
2022-09-21T22:24:20.025Z,101213.29
2022-09-21T22:26:49.087Z,101211.74
2022-09-21T22:29:18.172Z,101212.64
2022-09-21T22:31:50.346Z,101212.11
2022-09-21T22:34:20.510Z,101211.26
2022-09-21T22:36:50.642Z,101207.77
2022-09-21T22:39:19.161Z,101207.60
2022-09-21T22:41:47.710Z,101209.70
2022-09-21T22:44:16.363Z,101210.42
2022-09-21T22:46:44.896Z,101209.89
2022-09-21T22:49:13.374Z,101205.52
2022-09-21T22:51:41.925Z,101204.67
2022-09-21T22:54:10.449Z,101200.33
2022-09-21T22:56:39.208Z,101199.11
2022-09-21T22:59:08.609Z,101205.06
2022-09-21T23:01:39.339Z,101206.29
2022-09-21T23:04:10.825Z,101206.48
2022-09-21T23:06:42.500Z,101204.21
2022-09-21T23:09:20.006Z,101205.09
2022-09-21T23:11:53.872Z,101208.77
2022-09-21T23:14:23.531Z,101205.65
2022-09-21T23:16:52.269Z,101202.34
2022-09-21T23:19:20.863Z,101200.42
2022-09-21T23:21:50.698Z,101203.21
2022-09-21T23:24:20.193Z,101201.13
2022-09-21T23:26:51.891Z,101199.55
2022-09-21T23:29:20.671Z,101200.44
2022-09-21T23:31:49.320Z,101196.26
2022-09-21T23:34:18.167Z,101192.25
2022-09-21T23:36:46.815Z,101190.84
2022-09-21T23:39:16.081Z,101190.31
2022-09-21T23:41:45.529Z,101189.45
2022-09-21T23:44:14.328Z,101188.92
2022-09-21T23:46:43.416Z,101189.63
2022-09-21T23:49:12.228Z,101187.02
2022-09-21T23:51:41.612Z,101189.11
2022-09-21T23:54:10.821Z,101190.87
2022-09-21T23:56:39.443Z,101188.96
2022-09-21T23:59:08.178Z,101186.00
